createdAt,value
2018-12-17T00:01:52.555Z,26.93
2018-12-17T00:03:53.630Z,26.23
2018-12-17T00:05:54.799Z,26.00
2018-12-17T00:07:55.967Z,26.47
2018-12-17T00:09:57.005Z,26.37
2018-12-17T00:11:58.062Z,25.70
2018-12-17T00:13:59.277Z,30.67
2018-12-17T00:16:00.371Z,26.07
2018-12-17T00:18:01.459Z,30.43
2018-12-17T00:20:02.517Z,29.70
2018-12-17T00:22:03.561Z,27.57
2018-12-17T00:24:04.608Z,30.20
2018-12-17T00:26:05.755Z,30.23
2018-12-17T00:28:08.258Z,30.43
2018-12-17T00:30:09.544Z,30.10
2018-12-17T00:32:10.675Z,29.63
2018-12-17T00:34:11.703Z,27.53
2018-12-17T00:36:12.738Z,28.43
2018-12-17T00:38:13.948Z,32.20
2018-12-17T00:40:15.187Z,30.13
2018-12-17T00:42:16.251Z,29.27
2018-12-17T00:44:17.270Z,28.10
2018-12-17T00:46:18.287Z,27.90
2018-12-17T00:48:19.531Z,24.87
2018-12-17T00:50:20.648Z,28.40
2018-12-17T00:52:21.659Z,27.83
2018-12-17T00:54:22.674Z,27.83
2018-12-17T00:56:23.705Z,29.63
2018-12-17T00:58:24.613Z,29.53
2018-12-17T01:00:25.648Z,28.87
2018-12-17T01:02:26.707Z,29.10
2018-12-17T01:04:27.810Z,31.20
2018-12-17T01:06:28.942Z,30.43
2018-12-17T01:08:29.951Z,28.03
2018-12-17T01:10:30.982Z,26.83
2018-12-17T01:12:32.016Z,26.43
2018-12-17T01:14:33.035Z,27.23
2018-12-17T01:16:34.069Z,26.10
2018-12-17T01:18:35.106Z,27.97
2018-12-17T01:20:36.239Z,28.27
2018-12-17T01:22:37.255Z,25.90
2018-12-17T01:24:38.279Z,26.03
2018-12-17T01:26:39.309Z,26.07
2018-12-17T01:28:40.547Z,26.27
2018-12-17T01:30:41.570Z,26.77
2018-12-17T01:32:42.731Z,25.03
2018-12-17T01:34:43.752Z,27.63
2018-12-17T01:36:44.883Z,27.93
2018-12-17T01:38:45.899Z,26.03
2018-12-17T01:40:46.919Z,26.23
2018-12-17T01:42:47.971Z,27.40
2018-12-17T01:44:48.983Z,25.27
2018-12-17T01:46:49.994Z,28.80
2018-12-17T01:48:51.131Z,26.13
2018-12-17T01:50:52.155Z,26.63
2018-12-17T01:52:53.166Z,25.87
2018-12-17T01:54:54.207Z,25.47
2018-12-17T01:56:55.239Z,24.47
2018-12-17T01:58:56.298Z,24.47
2018-12-17T02:00:57.331Z,25.33
2018-12-17T02:02:58.342Z,23.57
2018-12-17T02:04:59.367Z,24.03
2018-12-17T02:07:00.459Z,24.60
2018-12-17T02:09:01.503Z,23.63
2018-12-17T02:11:02.535Z,23.73
2018-12-17T02:13:03.556Z,23.80
2018-12-17T02:15:04.583Z,24.70
2018-12-17T02:17:05.599Z,24.10
2018-12-17T02:19:06.623Z,23.90
2018-12-17T02:21:07.640Z,24.07
2018-12-17T02:23:08.659Z,24.07
2018-12-17T02:25:09.681Z,23.87
2018-12-17T02:27:10.715Z,24.27
2018-12-17T02:29:11.726Z,24.37
2018-12-17T02:31:12.775Z,24.00
2018-12-17T02:33:13.787Z,24.73
2018-12-17T02:35:14.802Z,23.90
2018-12-17T02:37:15.823Z,24.90
2018-12-17T02:39:16.890Z,25.47
2018-12-17T02:41:17.919Z,24.53
2018-12-17T02:43:19.148Z,25.03
2018-12-17T02:45:20.190Z,28.17
2018-12-17T02:47:21.234Z,27.50
2018-12-17T02:49:22.488Z,27.33
2018-12-17T02:51:23.505Z,26.93
2018-12-17T02:53:24.537Z,26.27
2018-12-17T02:55:25.567Z,27.40
2018-12-17T02:57:26.596Z,26.07
2018-12-17T02:59:27.638Z,28.20
2018-12-17T03:01:28.654Z,26.93
2018-12-17T03:03:29.687Z,28.33
2018-12-17T03:05:30.707Z,25.90
2018-12-17T03:07:31.723Z,30.27
2018-12-17T03:09:32.774Z,25.20
2018-12-17T03:11:33.787Z,27.43
2018-12-17T03:13:34.803Z,27.13
2018-12-17T03:15:35.890Z,26.00
2018-12-17T03:17:36.913Z,28.53
2018-12-17T03:19:37.933Z,29.23
2018-12-17T03:21:39.066Z,26.63
2018-12-17T03:23:40.111Z,30.43
2018-12-17T03:25:41.147Z,29.20
2018-12-17T03:27:42.180Z,28.10
2018-12-17T03:29:43.300Z,30.07
2018-12-17T03:31:44.555Z,27.50
2018-12-17T03:33:45.667Z,29.20
2018-12-17T03:35:46.704Z,29.07
2018-12-17T03:37:47.726Z,28.07
2018-12-17T03:39:48.760Z,27.80
2018-12-17T03:41:49.795Z,28.67
2018-12-17T03:43:50.807Z,29.37
2018-12-17T03:45:51.931Z,28.20
2018-12-17T03:47:52.963Z,27.67
2018-12-17T03:49:54.011Z,28.07
2018-12-17T03:51:55.027Z,28.30
2018-12-17T03:53:56.046Z,28.30
2018-12-17T03:55:57.070Z,26.43
2018-12-17T03:57:58.091Z,25.77
2018-12-17T03:59:59.237Z,27.57
2018-12-17T04:02:00.251Z,27.27
2018-12-17T04:04:01.274Z,28.00
2018-12-17T04:06:02.306Z,28.10
2018-12-17T04:08:03.437Z,26.93
2018-12-17T04:10:04.479Z,27.60
2018-12-17T04:12:05.530Z,28.10
2018-12-17T04:14:06.548Z,27.83
2018-12-17T04:16:07.719Z,27.00
2018-12-17T04:18:08.731Z,28.30
2018-12-17T04:20:09.752Z,26.37
2018-12-17T04:22:10.788Z,26.03
2018-12-17T04:24:11.823Z,26.83
2018-12-17T04:26:12.947Z,25.37
2018-12-17T04:28:14.015Z,27.77
2018-12-17T04:30:15.152Z,26.50
2018-12-17T04:32:16.170Z,26.37
2018-12-17T04:34:17.303Z,26.73
2018-12-17T04:36:18.335Z,25.67
2018-12-17T04:38:19.351Z,25.80
2018-12-17T04:40:20.384Z,24.37
2018-12-17T04:42:21.405Z,26.63
2018-12-17T04:44:22.544Z,25.20
2018-12-17T04:46:23.575Z,27.97
2018-12-17T04:48:24.615Z,26.50
2018-12-17T04:50:25.630Z,25.20
2018-12-17T04:52:26.663Z,26.93
2018-12-17T04:54:27.912Z,28.20
2018-12-17T04:56:28.932Z,28.03
2018-12-17T04:58:30.090Z,27.67
2018-12-17T05:00:31.214Z,28.57
2018-12-17T05:02:32.235Z,26.27
2018-12-17T05:04:33.267Z,29.03
2018-12-17T05:06:34.288Z,26.83
2018-12-17T05:08:35.305Z,27.07
2018-12-17T05:10:36.341Z,25.87
2018-12-17T05:12:37.463Z,27.17
2018-12-17T05:14:38.507Z,27.33
2018-12-17T05:16:39.624Z,26.67
2018-12-17T05:18:40.652Z,28.73
2018-12-17T05:20:41.675Z,27.47
2018-12-17T05:22:42.691Z,27.47
2018-12-17T05:24:43.747Z,26.07
2018-12-17T05:26:44.763Z,29.53
2018-12-17T05:28:45.780Z,25.17
2018-12-17T05:30:46.808Z,25.37
2018-12-17T05:32:47.830Z,28.37
2018-12-17T05:34:48.947Z,27.97
2018-12-17T05:36:49.975Z,26.73
2018-12-17T05:38:51.099Z,24.93
2018-12-17T05:40:52.451Z,26.47
2018-12-17T05:42:53.476Z,25.20
2018-12-17T05:44:54.499Z,24.60
2018-12-17T05:46:55.626Z,24.23
2018-12-17T05:48:56.756Z,24.33
2018-12-17T05:50:57.795Z,25.47
2018-12-17T05:52:58.811Z,24.37
2018-12-17T05:54:59.833Z,24.53
2018-12-17T05:57:00.867Z,25.23
2018-12-17T05:59:01.875Z,27.47
2018-12-17T06:01:02.967Z,27.30
2018-12-17T06:03:04.039Z,26.80
2018-12-17T06:05:05.057Z,27.50
2018-12-17T06:07:06.191Z,26.13
2018-12-17T06:09:09.446Z,24.27
2018-12-17T06:11:10.464Z,25.83
2018-12-17T06:13:11.603Z,25.83
2018-12-17T06:15:12.620Z,26.37
2018-12-17T06:17:13.634Z,25.40
2018-12-17T06:19:14.675Z,26.57
2018-12-17T06:21:15.694Z,27.40
2018-12-17T06:23:16.816Z,26.47
2018-12-17T06:25:17.848Z,26.13
2018-12-17T06:27:18.996Z,26.37
2018-12-17T06:29:20.123Z,24.70
2018-12-17T06:31:21.135Z,26.37
2018-12-17T06:33:22.173Z,25.83
2018-12-17T06:35:23.291Z,27.57
2018-12-17T06:37:24.235Z,29.43
2018-12-17T06:39:25.251Z,27.83
2018-12-17T06:41:26.267Z,26.93
2018-12-17T06:43:27.411Z,26.50
2018-12-17T06:45:28.431Z,27.47
2018-12-17T06:47:29.447Z,26.60
2018-12-17T06:49:30.505Z,26.03
2018-12-17T06:51:31.851Z,26.40
2018-12-17T06:53:32.891Z,25.33
2018-12-17T06:55:34.033Z,24.17
2018-12-17T06:57:35.046Z,23.37
2018-12-17T06:59:42.478Z,25.70
2018-12-17T07:01:39.123Z,25.67
2018-12-17T07:03:40.163Z,25.87
2018-12-17T07:05:41.203Z,23.93
2018-12-17T07:07:42.219Z,24.87
2018-12-17T07:09:43.251Z,24.07
2018-12-17T07:11:44.269Z,25.10
2018-12-17T07:13:45.299Z,26.97
2018-12-17T07:15:46.327Z,26.23
2018-12-17T07:17:47.367Z,25.87
2018-12-17T07:19:48.492Z,25.97
2018-12-17T07:21:49.542Z,26.27
2018-12-17T07:23:50.555Z,25.77
2018-12-17T07:25:51.571Z,24.37
2018-12-17T07:27:52.618Z,25.47
2018-12-17T07:29:53.756Z,24.70
2018-12-17T07:31:54.775Z,24.33
2018-12-17T07:33:55.806Z,24.73
2018-12-17T07:35:56.823Z,23.73
2018-12-17T07:37:57.873Z,23.20
2018-12-17T07:39:59.296Z,22.83
2018-12-17T07:42:00.438Z,23.23
2018-12-17T07:44:01.591Z,23.27
2018-12-17T07:46:02.619Z,23.57
2018-12-17T07:48:03.632Z,23.23
2018-12-17T07:50:04.756Z,23.00
2018-12-17T07:52:05.786Z,23.23
2018-12-17T07:54:06.818Z,23.40
2018-12-17T07:56:07.863Z,24.97
2018-12-17T07:58:08.883Z,24.33
2018-12-17T08:00:10.433Z,24.17
2018-12-17T08:02:11.475Z,24.37
2018-12-17T08:04:12.490Z,24.57
2018-12-17T08:06:13.504Z,23.63
2018-12-17T08:08:14.526Z,24.37
2018-12-17T08:10:15.642Z,25.43
2018-12-17T08:12:16.678Z,23.87
2018-12-17T08:14:17.803Z,24.60
2018-12-17T08:16:18.818Z,22.00
2018-12-17T08:18:19.846Z,24.60
2018-12-17T08:20:20.967Z,23.37
2018-12-17T08:22:22.351Z,21.50
2018-12-17T08:24:23.471Z,20.57
2018-12-17T08:26:24.535Z,21.50
2018-12-17T08:28:25.548Z,22.20
2018-12-17T08:30:26.598Z,21.03
2018-12-17T08:32:27.611Z,20.30
2018-12-17T08:34:28.647Z,21.77
2018-12-17T08:36:29.670Z,20.57
2018-12-17T08:38:30.791Z,20.47
2018-12-17T08:40:31.838Z,22.40
2018-12-17T08:42:32.863Z,21.67
2018-12-17T08:44:33.994Z,22.67
2018-12-17T08:46:35.168Z,28.80
2018-12-17T08:48:36.194Z,25.17
2018-12-17T08:50:37.211Z,23.97
2018-12-17T08:52:38.242Z,25.33
2018-12-17T08:54:39.275Z,22.47
2018-12-17T08:56:40.307Z,23.03
2018-12-17T08:58:41.331Z,24.33
2018-12-17T09:00:42.371Z,23.97
2018-12-17T09:02:43.403Z,25.27
2018-12-17T09:04:44.462Z,23.87
2018-12-17T09:06:45.479Z,24.87
2018-12-17T09:08:46.495Z,24.60
2018-12-17T09:10:47.724Z,26.07
2018-12-17T09:12:48.858Z,26.23
2018-12-17T09:14:49.891Z,24.33
2018-12-17T09:16:50.906Z,24.30
2018-12-17T09:18:51.924Z,23.17
2018-12-17T09:20:52.954Z,23.13
2018-12-17T09:22:53.966Z,22.17
2018-12-17T09:24:54.987Z,21.60
2018-12-17T09:26:56.111Z,22.47
2018-12-17T09:28:57.147Z,21.83
2018-12-17T09:30:58.163Z,22.63
2018-12-17T09:32:59.214Z,21.23
2018-12-17T09:35:00.339Z,20.03
2018-12-17T09:37:01.355Z,19.53
2018-12-17T09:39:02.639Z,19.90
2018-12-17T09:41:03.663Z,19.30
2018-12-17T09:43:04.834Z,18.20
2018-12-17T09:45:05.870Z,18.87
2018-12-17T09:47:06.995Z,17.77
2018-12-17T09:49:08.151Z,19.23
2018-12-17T09:51:09.179Z,18.97
2018-12-17T09:53:10.218Z,18.33
2018-12-17T09:55:11.236Z,18.50
2018-12-17T09:57:12.258Z,18.30
2018-12-17T09:59:13.288Z,17.13
2018-12-17T10:01:14.307Z,18.30
2018-12-17T10:03:15.338Z,18.30
2018-12-17T10:05:16.356Z,18.53
2018-12-17T10:07:17.370Z,17.80
2018-12-17T10:09:18.415Z,18.07
2018-12-17T10:11:19.431Z,17.17
2018-12-17T10:13:20.451Z,17.50
2018-12-17T10:15:21.490Z,18.43
2018-12-17T10:17:22.631Z,18.70
2018-12-17T10:19:23.667Z,18.07
2018-12-17T10:21:24.683Z,18.93
2018-12-17T10:23:25.616Z,18.33
2018-12-17T10:25:26.630Z,19.80
2018-12-17T10:27:27.659Z,17.43
2018-12-17T10:29:28.692Z,18.77
2018-12-17T10:31:29.707Z,18.63
2018-12-17T10:33:30.731Z,17.93
2018-12-17T10:35:31.756Z,18.60
2018-12-17T10:37:32.772Z,17.10
2018-12-17T10:39:33.800Z,17.73
2018-12-17T10:41:34.827Z,17.90
2018-12-17T10:43:35.843Z,18.23
2018-12-17T10:45:36.876Z,15.70
2018-12-17T10:47:38.003Z,17.23
2018-12-17T10:49:39.054Z,16.93
2018-12-17T10:51:40.181Z,16.53
2018-12-17T10:53:41.323Z,16.27
2018-12-17T10:55:42.371Z,14.70
2018-12-17T10:57:43.519Z,14.83
2018-12-17T10:59:44.451Z,14.10
2018-12-17T11:01:50.064Z,15.10
2018-12-17T11:03:53.779Z,14.67
2018-12-17T11:05:55.155Z,13.30
2018-12-17T20:49:48.247Z,13.97
2018-12-17T20:51:49.276Z,12.10
2018-12-17T20:53:50.331Z,12.20
2018-12-17T20:55:51.421Z,10.83
2018-12-17T20:57:52.471Z,11.53
2018-12-17T20:59:53.599Z,10.27
2018-12-17T21:01:54.658Z,10.70
2018-12-17T21:03:55.804Z,10.10
2018-12-17T21:05:56.843Z,11.07
2018-12-17T21:07:57.985Z,10.43
2018-12-17T21:09:59.123Z,10.23
2018-12-17T21:12:00.230Z,10.50
2018-12-17T21:14:01.388Z,10.50
2018-12-17T21:16:02.316Z,9.87
2018-12-17T21:18:03.399Z,9.83
2018-12-17T21:20:04.333Z,10.00
2018-12-17T21:22:05.426Z,9.67
2018-12-17T21:24:06.471Z,10.83
2018-12-17T21:26:07.499Z,10.07
2018-12-17T21:28:08.554Z,11.23
2018-12-17T21:30:09.601Z,10.80
2018-12-17T21:32:10.746Z,11.17
2018-12-17T21:34:11.871Z,10.30
2018-12-17T21:36:12.909Z,10.40
2018-12-17T21:38:13.958Z,10.97
2018-12-17T21:40:15.087Z,11.50
2018-12-17T21:42:16.255Z,10.00
2018-12-17T21:44:17.260Z,10.33
2018-12-17T21:46:18.309Z,10.20
2018-12-17T21:48:19.367Z,10.47
2018-12-17T21:50:20.471Z,10.80
2018-12-17T21:52:21.527Z,10.00
2018-12-17T21:54:22.659Z,10.00
2018-12-17T21:56:23.683Z,10.60
2018-12-17T21:58:24.711Z,10.03
2018-12-17T22:00:25.763Z,10.53
2018-12-17T22:02:26.919Z,10.20
2018-12-17T22:04:28.034Z,10.20
2018-12-17T22:06:29.156Z,10.40
2018-12-17T22:08:30.240Z,10.33
2018-12-17T22:10:34.651Z,10.50
2018-12-17T22:12:35.675Z,11.03
2018-12-17T22:14:36.823Z,11.10
2018-12-17T22:16:37.847Z,10.93
2018-12-17T22:18:38.863Z,10.63
2018-12-17T22:20:39.891Z,10.83
2018-12-17T22:22:40.904Z,10.50
2018-12-17T22:24:41.940Z,10.77
2018-12-17T22:26:42.958Z,10.50
2018-12-17T22:28:43.867Z,10.60
2018-12-17T22:30:44.886Z,11.30
2018-12-17T22:32:45.907Z,10.53
2018-12-17T22:34:46.915Z,11.83
2018-12-17T22:36:47.919Z,11.30
2018-12-17T22:38:48.960Z,11.57
2018-12-17T22:40:50.096Z,11.83
2018-12-17T22:42:51.243Z,11.50
2018-12-17T22:44:52.255Z,10.80
2018-12-17T22:46:53.379Z,12.50
2018-12-17T22:48:54.411Z,11.30
2018-12-17T22:50:55.335Z,11.27
2018-12-17T22:52:56.344Z,11.00
2018-12-17T22:54:57.381Z,11.93
2018-12-17T22:56:58.399Z,11.63
2018-12-17T22:58:59.415Z,11.73
2018-12-17T23:01:00.344Z,11.50
2018-12-17T23:03:01.360Z,11.53
2018-12-17T23:05:02.401Z,11.77
2018-12-17T23:07:03.427Z,11.50
2018-12-17T23:09:07.016Z,11.73
2018-12-17T23:11:08.156Z,11.47
2018-12-17T23:13:09.174Z,11.50
2018-12-17T23:15:10.251Z,10.83
2018-12-17T23:17:11.283Z,10.70
2018-12-17T23:19:12.831Z,10.23
2018-12-17T23:21:13.844Z,9.70
2018-12-17T23:23:14.867Z,10.37
2018-12-17T23:25:15.878Z,10.63
2018-12-17T23:27:16.907Z,10.90
2018-12-17T23:29:18.043Z,10.17
2018-12-17T23:31:19.058Z,11.30
2018-12-17T23:33:19.996Z,10.57
2018-12-17T23:35:21.007Z,10.93
2018-12-17T23:37:22.127Z,11.10
2018-12-17T23:39:23.151Z,10.10
2018-12-17T23:41:24.170Z,9.87
2018-12-17T23:43:25.308Z,10.13
2018-12-17T23:45:26.336Z,9.93
2018-12-17T23:47:27.483Z,10.50
2018-12-17T23:49:28.508Z,9.90
2018-12-17T23:51:29.535Z,9.83
2018-12-17T23:53:30.607Z,9.40
2018-12-17T23:55:31.691Z,10.23
2018-12-17T23:57:32.715Z,10.43
2018-12-17T23:59:33.719Z,10.77
